Station: Mount Gambier

  Atmospheric Gas Attenuation - ITU Rec 676-11   --------------- db/100km ---------------
Date Time Temp RH % AH g/m3 Dew Point Wind Direction Speed kph Gust kph Barometer mB Rainfall Since 9am 24GHz 47GHz 76GHz 122GHz 134GHz 241GHz
17 05:50 10 97 9.12 9.5 11 11 1025.2 2.4 20.9 28.4 44.6 116.9 111.8 384.6
17 05:40 9.6 97 8.89 9.1 13 13 1025.1 2.4 20.4 28.1 43.8 114.9 109.1 375.0
17 05:20 9.3 97 8.72 8.8 9 9 1025 2.4 20.1 27.9 43.2 113.3 107.0 368.0
17 04:50 9.5 96 8.74 8.9 11 11 1024.7 2.4 20.1 27.9 43.2 113.2 107.0 367.9
17 04:40 10 97 9.12 9.5 11 11 1024.6 2.4 20.9 28.4 44.5 116.9 111.7 384.4
17 04:30 10 97 9.12 9.5 11 17 1024.6 2.4 20.9 28.4 44.5 116.9 111.7 384.4
17 04:20 10.1 97 9.17 9.6 15 15 1024.5 2.4 21.0 28.4 44.7 117.3 112.3 386.4
17 04:10 9.9 97 9.06 9.4 15 17 1024.5 2.4 20.8 28.3 44.3 116.3 111.0 381.9
17 04:00 9.6 96 8.8 9 11 13 1024.4 2.4 20.2 27.9 43.4 113.7 107.7 370.4
17 03:50 9.8 96 8.91 9.2 11 11 1024.4 2.4 20.4 28.1 43.7 114.7 109.0 374.9
17 03:40 10 96 9.02 9.4 9 11 1024.4 2.2 20.7 28.2 44.1 115.7 110.3 379.4
17 03:30 10.1 96 9.08 9.5 11 13 1024.4 2.2 20.8 28.3 44.3 116.2 111.0 381.9
17 03:20 10.3 96 9.2 9.7 11 15 1024.4 2.2 21.0 28.4 44.7 117.3 112.4 386.9
17 03:10 10.3 96 9.2 9.7 13 13 1024.4 2.2 21.0 28.4 44.7 117.3 112.4 386.9
17 03:00 10.3 96 9.2 9.7 13 15 1024.5 2.2 21.0 28.4 44.7 117.3 112.4 386.9
17 02:50 10.5 96 9.31 9.9 13 15 1024.5 2.2 21.3 28.5 45.1 118.3 113.7 391.4
17 02:40 10.7 97 9.53 10.2 15 17 1024.5 2.2 21.7 28.9 45.9 120.6 116.5 401.4
17 02:30 10.6 97 9.47 10.1 15 19 1024.5 2.2 21.6 28.8 45.7 120.0 115.8 398.9
17 02:20 10.3 96 9.2 9.7 13 13 1024.3 2.2 21.0 28.4 44.7 117.3 112.4 386.8
17 02:10 10.2 96 9.14 9.6 11 13 1024.3 2.2 20.9 28.3 44.5 116.8 111.7 384.3
17 02:00 10.5 96 9.31 9.9 11 17 1024.3 2.2 21.3 28.5 45.1 118.3 113.7 391.3
17 01:50 10.1 96 9.08 9.5 11 13 1024.3 2.2 20.8 28.3 44.3 116.2 111.0 381.8
17 01:40 10 95 8.93 9.2 11 13 1024.2 2.2 20.5 28.0 43.7 114.6 109.0 374.8
17 01:30 9.9 94 8.78 9 13 15 1024.3 2.2 20.2 27.8 43.1 113.1 107.0 367.9
17 01:20 10.3 94 9 9.4 13 15 1024.3 2.2 20.6 28.1 43.8 115.0 109.5 376.9
17 01:10 10.5 94 9.12 9.6 13 15 1024.4 2.2 20.9 28.2 44.2 116.1 111.0 381.9
17 01:00 10.6 94 9.18 9.7 17 20 1024.4 2.2 21.0 28.3 44.4 116.6 111.7 384.4
17 00:50 10.6 93 9.08 9.5 15 17 1024.3 2.2 20.8 28.1 44.0 115.5 110.2 379.4
17 00:40 10.6 93 9.08 9.5 15 17 1024.3 2.2 20.8 28.1 44.0 115.5 110.2 379.4
17 00:30 10.8 93 9.19 9.7 19 24 1024.3 2.2 21.0 28.2 44.4 116.4 111.5 383.8
17 00:20 10.8 93 9.19 9.7 20 28 1024.4 2.2 21.0 28.2 44.4 116.5 111.5 383.9
17 00:10 11 94 9.41 10.1 19 22 1024.4 2.2 21.5 28.5 45.2 118.7 114.4 393.8
17 00:00 11 93 9.31 9.9 17 22 1024.3 2.2 21.2 28.4 44.8 117.5 112.9 388.8
16 23:50 11.2 92 9.33 9.9 20 26 1024.4 2.2 21.3 28.3 44.7 117.5 112.9 388.8
16 23:40 11.7 83 8.68 8.9 20 28 1024.4 2 19.9 27.1 41.7 109.4 103.1 354.7
16 23:30 11.6 81 8.42 8.5 17 22 1024.2 2 19.3 26.7 40.7 106.6 99.7 342.6
16 23:20 11.7 80 8.37 8.4 19 22 1024.2 2 19.2 26.6 40.4 105.9 98.9 339.8
16 23:10 11.9 79 8.37 8.4 19 26 1024.3 2 19.2 26.5 40.3 105.7 98.6 339.0
16 23:00 12.1 74 7.94 7.6 17 20 1024.1 2 18.2 25.7 38.5 100.7 92.6 317.9
16 22:50 12.1 73 7.83 7.4 17 20 1024.2 2 18.0 25.5 38.0 99.5 91.2 312.8
16 22:40 12.2 72 7.77 7.3 17 19 1024.1 2 17.9 25.4 37.7 98.7 90.2 309.6
16 22:30 12.1 72 7.72 7.2 17 20 1024.1 2 17.8 25.4 37.6 98.3 89.7 307.7
16 22:20 12.1 71 7.61 7 19 22 1024.1 2 17.5 25.2 37.1 97.2 88.3 302.6
16 22:10 12.1 71 7.61 7 17 20 1024.1 2 17.5 25.2 37.1 97.2 88.3 302.6
16 22:00 12.2 72 7.77 7.3 17 26 1024.1 2 17.9 25.4 37.7 98.7 90.2 309.6
16 21:50 12.2 74 7.99 7.7 19 24 1024.1 2 18.4 25.8 38.6 101.1 93.2 319.8
16 21:40 11.8 76 8 7.7 13 17 1024 2 18.4 25.9 38.8 101.7 93.8 321.9
16 21:30 12 76 8.1 7.9 17 22 1024 2 18.6 26.0 39.2 102.5 94.9 325.7
16 21:20 12.1 75 8.04 7.8 17 19 1023.9 2 18.5 25.9 38.9 101.8 93.9 322.5
16 21:10 12.2 74 7.99 7.7 17 19 1023.8 2 18.4 25.8 38.6 101.1 93.1 319.7
16 21:00 12.4 74 8.09 7.9 19 26 1023.8 2 18.6 25.9 38.9 101.9 94.2 323.6
16 20:50 12.4 72 7.87 7.5 22 26 1023.8 2 18.1 25.5 38.0 99.5 91.3 313.3
16 20:40 12.3 73 7.93 7.6 20 26 1023.7 2 18.2 25.6 38.3 100.3 92.2 316.5
16 20:30 12.5 71 7.81 7.4 22 28 1023.6 2 18.0 25.4 37.7 98.7 90.4 310.1
16 20:20 12.5 73 8.03 7.8 22 26 1023.6 2 18.4 25.7 38.6 101.1 93.3 320.3
16 20:10 12.3 75 8.14 8 19 20 1023.5 2 18.7 26.0 39.1 102.5 95.0 326.2
16 20:00 12.4 76 8.3 8.3 22 30 1023.5 2 19.0 26.2 39.7 104.1 97.0 333.3
16 19:50 12.3 76 8.25 8.2 20 28 1023.5 2 18.9 26.1 39.6 103.7 96.5 331.4
16 19:40 12.3 77 8.36 8.4 22 26 1023.5 2 19.1 26.3 40.0 104.9 97.9 336.6
16 19:30 12.2 80 8.63 8.9 20 30 1023.4 2 19.7 26.8 41.2 108.0 101.7 349.8
16 19:20 11.8 84 8.84 9.2 19 20 1023.3 2 20.2 27.3 42.3 110.9 105.1 361.6
16 19:10 11.6 85 8.84 9.2 22 26 1023.2 2 20.2 27.3 42.4 111.2 105.4 362.5
16 19:00 11.2 87 8.82 9.1 17 24 1023.3 2 20.2 27.4 42.5 111.5 105.7 363.4
16 18:50 11.2 85 8.62 8.8 20 24 1023.1 2 19.7 27.1 41.7 109.3 102.9 353.7
16 18:40 11.4 82 8.42 8.4 24 30 1023.2 2 19.3 26.7 40.7 106.8 99.9 343.2
16 18:30 11.4 81 8.32 8.3 33 41 1023.1 2 19.1 26.5 40.3 105.7 98.5 338.4
16 18:20 11.7 83 8.68 8.9 35 39 1023.2 2 19.9 27.0 41.7 109.2 103.0 354.3
16 18:10 12 77 8.21 8.1 19 20 1022.8 2 18.8 26.1 39.5 103.6 96.2 330.6
16 18:00 11.8 81 8.53 8.6 13 20 1022.6 2 19.5 26.7 41.0 107.4 100.8 346.5
16 17:50 11.5 82 8.47 8.5 13 15 1022.5 2 19.4 26.7 40.9 107.1 100.4 345.0
16 17:40 11.8 81 8.53 8.6 13 15 1022.5 2 19.5 26.7 40.9 107.4 100.8 346.5
16 17:30 12 79 8.42 8.5 15 20 1022.4 2 19.3 26.5 40.4 105.9 99.0 340.4
16 17:20 12.2 79 8.53 8.7 15 17 1022.3 2 19.5 26.6 40.7 106.8 100.3 344.7
16 17:10 12.2 79 8.53 8.7 20 26 1022.4 2 19.5 26.6 40.7 106.8 100.3 344.7
16 17:00 12.2 78 8.42 8.5 28 37 1022.3 2 19.3 26.4 40.3 105.6 98.8 339.5
16 16:50 12.4 76 8.3 8.3 26 30 1022.4 2 19.0 26.2 39.7 104.0 96.9 333.0
16 16:40 12.6 77 8.52 8.7 24 26 1022.3 2 19.5 26.5 40.5 106.1 99.6 342.5
16 16:30 12.3 82 8.9 9.3 19 26 1022.2 2 20.3 27.2 42.2 110.7 105.2 361.9
16 16:20 12.4 83 9.07 9.6 20 22 1022.3 2 20.7 27.4 42.9 112.5 107.4 369.6
16 16:10 12.2 84 9.07 9.6 22 26 1022.2 2 20.7 27.5 43.0 112.8 107.6 370.5
16 16:00 12.4 80 8.74 9.1 33 48 1022.3 2 19.9 26.9 41.5 108.8 102.9 353.8
16 15:50 12.8 84 9.41 10.2 28 33 1022.2 2 21.4 27.9 44.1 115.7 111.5 384.1
16 15:40 12.8 82 9.19 9.8 22 32 1022.1 2 20.9 27.5 43.1 113.2 108.4 373.4
16 15:30 13.6 76 8.94 9.5 22 32 1021.9 2 20.3 26.8 41.7 109.3 103.9 357.7
16 15:20 13.7 76 9 9.6 20 26 1021.9 2 20.4 26.9 41.9 109.8 104.6 360.1
16 15:10 13.7 77 9.12 9.7 22 26 1022 2 20.7 27.1 42.4 111.2 106.2 365.8
16 15:00 13.3 77 8.9 9.4 20 26 1022 2 20.2 26.9 41.7 109.3 103.8 357.2
16 14:50 13.4 76 8.84 9.3 17 20 1022 2 20.1 26.7 41.4 108.5 102.9 353.9
16 14:40 13.3 75 8.67 9 19 22 1021.9 2 19.8 26.5 40.7 106.8 100.7 346.3
16 14:30 13.5 76 8.89 9.4 24 32 1021.9 2 20.2 26.8 41.5 108.9 103.4 355.8
16 14:20 13.4 76 8.84 9.3 24 28 1021.9 2 20.1 26.7 41.4 108.5 102.8 353.9
16 14:10 13.3 75 8.67 9 17 19 1022.1 2 19.8 26.5 40.7 106.8 100.7 346.4
16 14:00 13.5 77 9.01 9.6 20 32 1022.1 2 20.5 27.0 42.0 110.3 105.0 361.5
16 13:50 13.1 79 9.02 9.5 20 24 1022.1 2 20.5 27.1 42.3 110.9 105.7 363.9
16 13:40 12.9 82 9.24 9.9 22 26 1022.1 2 21.0 27.6 43.3 113.7 109.0 375.3
16 13:30 12.8 79 8.85 9.3 28 39 1022.1 2 20.2 26.9 41.7 109.5 103.8 357.1
16 13:20 13.3 79 9.13 9.7 22 28 1022.1 2 20.7 27.3 42.6 111.9 106.9 368.2
16 13:10 13 82 9.3 10 30 35 1022.2 2 21.1 27.6 43.5 114.2 109.7 377.8
16 13:00 13 81 9.19 9.8 30 37 1022.1 2 20.9 27.4 43.0 113.0 108.2 372.5
16 12:50 12.7 82 9.13 9.7 32 37 1022.3 2 20.8 27.4 43.0 112.7 107.8 371.1

Last Refresh: 17-May-2021 05:54:11

Bureau of Meteorology